Airfield :
LOGIN :

Register | Disclaimer

   EN    FR    IT 

 










Legend :    VFR   Marginal VFR   IFR   Intensive IFR   Very Intensive IFR
Visi :
Ceiling :
>= 8 km
>= 3000ft
5 to 8 km
1000 to 3000 ft
1500m to 5 km
500 to 1000 ft
800 to 1500m
200 to 500 ft
< 800m
< 200 ft
Symbols :   Thunderstorms  Fog  Heavy snow  Heavy precipitations  Wind > 20 kt
SIGMETs :     Misc.  Thunderstorms  Icing  Turbulence  Mountain Waves  Volcanic Ashes







- Airport Elevation : 93 ft
- IATA code : XRY


LEJR - Jerez

CURRENT METAR :
  • 180700Z 25004KT 210V280 9000 SCT015 SCT030 18/17 Q1015

EXPIRED METARs :
  • 180630Z 27005KT 240V320 9000 SHRA SCT010CB SCT020 18/17 Q1015
  • 180600Z 28007KT 240V310 9000 SHRA SCT010CB SCT020 18/17 Q1015
  • 180530Z 29007KT 260V330 9000 SHRA SCT010CB SCT020 18/18 Q1015
  • 180520Z 29008KT 260V330 9999 VCTS SHRA SCT010CB SCT020 19/18 Q1015
  • 180500Z 28012KT 240V320 9999 VCTS FEW015CB SCT025 19/18 Q1015
  • 180430Z 22003KT 9999 VCTS FEW015CB SCT025 19/19 Q1014

TAF TAF LEJR
Valid from the 18 at 06:00 until the 19 at 06:00 UTC


180500Z 1806/1906 22009KT 9999 SCT025 SCT040 TX24/1814Z TN18/1806Z
PROB40
TEMPO 1806/1906 4000 SHRA FEW020CB BKN030
PROB30
TEMPO 1806/1812 3000 TSRA SCT018CB BKN025
No reported NOTAMs for that airfield.
3 SIGMETs reported for the Madrid FIR (LECM) :
 
Embedded thunderstorms
LECM SIGMET 6 VALID 180800/181000 LEVA
LECM MADRID FIR/UIR EMBD TS OBS AT 0645Z WI N3550 W00530 - N3550 W00420 - N3820 W00220 - N3820 W00320 - N3550 W00530 TOP FL340 MOV E NC=
Embedded thunderstorms
LECM SIGMET 5 VALID 180600/180800 LEVA
LECM MADRID FIR/UIR EMBD TS OBS AT 0543Z WI N3550 W00550 - N3550 W00430 - N38 W00220 - N3810 W00420 - N3550 W00550 TOP FL340 MOV NE NC=
Severe turbulence
LECM SIGMET 4 VALID 180504/180900 LEVA
LECM MADRID FIR/UIR SEV TURB OBS AT 0504Z WI N45 W011 - N4230 W01050 - N4150 W00620 - N4450 W00640 - N45 W011 FL220/320 MOV NE 20KT NC=



MET'MAP, your aeronautical weather chart ! - Copyright ORBIFLY December 2007 - Disclaimer

ORBIFLY MET'MAP TEAM :

Programming & Development : Alexandra Zaïnal
Concept & Development : Baudouin d'Aumeries
Co-Development & Prog : Marc-Olivier Méhu
Technical & hardware support : Manuel Goepfert

Contact : metmap@orbifly.com




SOURCES & CREDITS :

   NOAA